createdAt,value
2019-04-11T03:15:28.729Z,99.90
2019-04-11T03:17:46.147Z,99.90
2019-04-11T03:20:23.950Z,99.90
2019-04-11T03:22:54.154Z,99.90
2019-04-11T03:25:17.743Z,99.90
2019-04-11T03:27:47.445Z,99.90
2019-04-11T03:30:23.957Z,99.90
2019-04-11T03:33:50.225Z,99.90
2019-04-11T03:38:17.474Z,99.90
2019-04-11T03:40:36.548Z,99.90
2019-04-11T03:43:06.126Z,99.90
2019-04-11T03:45:43.451Z,99.90
2019-04-11T03:48:11.029Z,99.90
2019-04-11T03:50:27.995Z,99.90
2019-04-11T03:52:56.322Z,99.90
2019-04-11T03:55:28.409Z,99.90
2019-04-11T03:57:59.223Z,99.90
2019-04-11T04:00:35.436Z,99.90
2019-04-11T04:03:01.385Z,99.90
2019-04-11T04:05:34.045Z,99.90
2019-04-11T04:08:03.854Z,99.90
2019-04-11T04:10:34.049Z,99.90
2019-04-11T04:13:05.376Z,99.90
2019-04-11T04:16:00.273Z,99.90
2019-04-11T04:18:45.780Z,99.90
2019-04-11T04:21:33.257Z,99.90
2019-04-11T04:24:04.083Z,99.90
2019-04-11T04:26:35.465Z,99.90
2019-04-11T04:29:07.509Z,99.90
2019-04-11T04:31:38.553Z,99.90
2019-04-11T04:34:09.398Z,99.90
2019-04-11T04:36:40.314Z,99.90
2019-04-11T04:39:10.676Z,99.90
2019-04-11T04:41:51.919Z,99.90
2019-04-11T04:44:12.662Z,99.90
2019-04-11T04:46:55.559Z,99.90
2019-04-11T04:49:13.210Z,99.90
2019-04-11T04:51:43.698Z,99.90
2019-04-11T04:54:14.199Z,99.90
2019-04-11T04:56:45.324Z,99.90
2019-04-11T04:59:16.187Z,99.90
2019-04-11T05:01:46.331Z,99.90
2019-04-11T05:04:16.306Z,99.90
2019-04-11T05:06:48.170Z,99.90
2019-04-11T05:09:16.096Z,99.90
2019-04-11T05:11:46.524Z,99.90
2019-04-11T05:14:16.369Z,99.90
2019-04-11T05:16:46.114Z,99.90
2019-04-11T05:19:15.210Z,99.90
2019-04-11T05:21:44.135Z,99.90
2019-04-11T05:24:13.120Z,99.90
2019-04-11T05:26:42.178Z,99.90
2019-04-11T05:29:11.225Z,99.90
2019-04-11T05:31:41.363Z,99.90
2019-04-11T05:34:10.400Z,99.90
2019-04-11T05:36:39.323Z,99.90
2019-04-11T05:39:08.863Z,99.90
2019-04-11T05:41:41.771Z,99.90
2019-04-11T05:44:10.873Z,99.90
2019-04-11T05:46:48.918Z,99.90
2019-04-11T05:49:20.240Z,99.90
2019-04-11T05:51:58.616Z,99.90
2019-04-11T05:54:30.654Z,99.90
2019-04-11T05:57:01.313Z,99.90
2019-04-11T05:59:30.701Z,99.90
2019-04-11T06:02:09.272Z,99.90
2019-04-11T06:04:42.817Z,99.90
2019-04-11T06:07:40.036Z,99.90
2019-04-11T06:10:12.820Z,99.90
2019-04-11T06:13:10.070Z,99.90
2019-04-11T06:15:43.968Z,99.90
2019-04-11T06:18:35.346Z,99.90
2019-04-11T06:21:09.509Z,99.90
2019-04-11T06:24:14.087Z,99.90
2019-04-11T06:27:02.352Z,99.90
2019-04-11T06:29:39.326Z,99.90
2019-04-11T06:32:26.003Z,99.90
2019-04-11T06:34:59.958Z,99.90
2019-04-11T06:38:00.702Z,99.90
2019-04-11T06:40:35.004Z,99.90
2019-04-11T06:43:28.877Z,99.90
2019-04-11T06:46:31.941Z,99.90
2019-04-11T06:49:28.920Z,99.90
2019-04-11T06:52:00.370Z,99.90
2019-04-11T06:54:52.460Z,99.90
2019-04-11T06:57:23.624Z,99.90
2019-04-11T06:59:52.838Z,99.90
2019-04-11T07:02:24.516Z,99.90
2019-04-11T07:04:55.527Z,99.90
2019-04-11T07:07:28.530Z,99.90
2019-04-11T07:10:04.579Z,99.90
2019-04-11T07:13:11.851Z,99.90
2019-04-11T07:15:50.530Z,99.90
2019-04-11T07:18:37.818Z,99.90
2019-04-11T07:21:09.011Z,99.90
2019-04-11T07:23:56.021Z,99.90
2019-04-11T07:26:42.167Z,99.90
2019-04-11T07:29:31.432Z,99.90
2019-04-11T07:32:18.150Z,99.90
2019-04-11T07:35:05.286Z,99.90
2019-04-11T07:37:38.910Z,99.90
2019-04-11T07:40:29.435Z,99.90
2019-04-11T07:43:13.552Z,99.90
2019-04-11T07:46:00.305Z,99.90
2019-04-11T07:48:40.403Z,99.90
2019-04-11T07:51:17.903Z,99.90
2019-04-11T07:53:50.158Z,99.90
2019-04-11T07:56:54.967Z,99.90
2019-04-11T07:59:39.692Z,99.90
2019-04-11T08:02:37.710Z,99.90
2019-04-11T08:05:36.657Z,99.90
2019-04-11T08:08:32.294Z,99.90
2019-04-11T08:11:20.661Z,99.90
2019-04-11T08:14:10.484Z,99.90
2019-04-11T08:16:59.971Z,99.90
2019-04-11T08:19:46.915Z,99.90
2019-04-11T08:22:21.327Z,99.90
2019-04-11T08:25:13.997Z,99.90
2019-04-11T08:27:58.305Z,99.90
2019-04-11T08:30:26.663Z,99.90
2019-04-11T08:32:58.281Z,99.90
2019-04-11T08:35:46.548Z,99.90
2019-04-11T08:38:18.631Z,99.90
2019-04-11T08:40:55.731Z,99.90
2019-04-11T08:43:27.091Z,99.90
2019-04-11T08:46:00.390Z,99.90
2019-04-11T08:48:30.824Z,99.90
2019-04-11T08:51:05.072Z,99.90
2019-04-11T08:53:53.083Z,99.90
2019-04-11T08:56:23.078Z,99.90
2019-04-11T08:59:43.986Z,99.90
2019-04-11T09:02:37.300Z,99.90
2019-04-11T09:05:27.353Z,99.90
2019-04-11T09:08:16.375Z,99.90
2019-04-11T09:11:17.446Z,99.90
2019-04-11T09:14:17.903Z,99.90
2019-04-11T09:16:59.205Z,99.90
2019-04-11T09:19:51.454Z,99.90
2019-04-11T09:22:31.777Z,99.90
2019-04-11T09:25:30.389Z,99.90
2019-04-11T09:28:25.194Z,99.90
2019-04-11T09:31:13.234Z,99.90
2019-04-11T09:33:59.850Z,99.90
2019-04-11T09:36:45.490Z,99.90
2019-04-11T09:39:21.391Z,99.90
2019-04-11T09:42:03.298Z,99.90
2019-04-11T09:44:49.147Z,99.90
2019-04-11T09:47:36.281Z,99.90
2019-04-11T09:50:07.938Z,99.90
2019-04-11T09:52:42.015Z,99.90
2019-04-11T09:55:25.705Z,99.90
2019-04-11T09:57:58.635Z,99.90
2019-04-11T10:00:47.375Z,99.90
2019-04-11T10:03:25.674Z,99.90
2019-04-11T10:06:23.830Z,99.90
2019-04-11T10:08:56.030Z,99.90
2019-04-11T10:11:59.159Z,99.90
2019-04-11T10:14:29.836Z,99.90
2019-04-11T10:17:16.949Z,99.90
2019-04-11T10:19:54.326Z,99.90
2019-04-11T10:22:43.792Z,99.90
2019-04-11T10:25:16.867Z,99.90
2019-04-11T10:28:04.892Z,99.90
2019-04-11T10:30:55.896Z,99.90
2019-04-11T10:33:44.885Z,99.90
2019-04-11T10:36:39.235Z,99.90
2019-04-11T10:39:29.063Z,99.90
2019-04-11T10:42:04.330Z,99.90
2019-04-11T10:44:42.311Z,99.10
2019-04-11T10:47:17.583Z,98.30
2019-04-11T10:50:21.715Z,99.90
2019-04-11T10:53:02.597Z,99.90
2019-04-11T10:56:02.663Z,97.60
2019-04-11T10:58:37.163Z,98.70
2019-04-11T11:01:24.988Z,97.70
2019-04-11T11:04:32.586Z,97.30
2019-04-11T11:07:09.698Z,97.10
2019-04-11T11:09:46.325Z,95.20
2019-04-11T11:12:35.151Z,96.40
2019-04-11T11:15:09.893Z,96.30
2019-04-11T11:18:35.109Z,96.00
2019-04-11T11:20:59.260Z,95.40
2019-04-11T11:23:45.410Z,93.30
2019-04-11T11:26:24.250Z,90.70
2019-04-11T11:29:15.218Z,90.40
2019-04-11T11:31:56.472Z,91.20
2019-04-11T11:34:48.991Z,89.10
2019-04-11T11:37:33.564Z,90.40
2019-04-11T11:40:21.916Z,90.60
2019-04-11T11:43:19.104Z,87.50
2019-04-11T11:46:14.071Z,87.30
2019-04-11T11:48:48.860Z,88.30
2019-04-11T11:51:23.875Z,83.10
2019-04-11T11:54:13.633Z,85.80
2019-04-11T11:56:44.428Z,86.70
2019-04-11T11:59:36.485Z,86.90
2019-04-11T12:02:15.779Z,86.50
2019-04-11T12:04:52.629Z,83.00
2019-04-11T12:07:26.234Z,82.80
2019-04-11T12:10:13.397Z,87.50
2019-04-11T12:12:56.940Z,87.90
2019-04-11T12:15:43.742Z,90.80
2019-04-11T12:18:32.933Z,91.00
2019-04-11T12:21:05.144Z,91.20
2019-04-11T12:23:58.115Z,92.10
2019-04-11T12:26:22.112Z,92.50
2019-04-11T12:29:08.833Z,94.40
2019-04-11T12:31:40.379Z,92.10
2019-04-11T12:34:28.447Z,92.40
2019-04-11T12:36:57.898Z,93.50
2019-04-11T12:40:04.495Z,93.20
2019-04-11T12:42:36.326Z,91.70
2019-04-11T12:45:42.769Z,93.20
2019-04-11T12:48:12.215Z,93.70
2019-04-11T12:50:59.092Z,95.00
2019-04-11T12:53:28.436Z,94.50
2019-04-11T12:56:08.455Z,94.50
2019-04-11T12:58:42.797Z,95.80
2019-04-11T13:01:33.399Z,95.00
2019-04-11T13:04:18.655Z,95.10
2019-04-11T13:07:00.690Z,96.40
2019-04-11T13:09:57.994Z,96.60
2019-04-11T13:12:35.388Z,97.00
2019-04-11T13:15:26.581Z,96.50
2019-04-11T13:18:02.911Z,97.10
2019-04-11T13:20:54.942Z,96.80
2019-04-11T13:23:32.343Z,96.20
2019-04-11T13:26:16.974Z,96.80
2019-04-11T13:28:47.698Z,96.30
2019-04-11T13:31:34.447Z,97.00
2019-04-11T13:34:05.106Z,96.20
2019-04-11T13:36:51.670Z,96.30
2019-04-11T13:39:20.807Z,97.30
2019-04-11T13:42:07.405Z,97.30
2019-04-11T13:44:38.768Z,97.30
2019-04-11T13:47:25.430Z,97.30
2019-04-11T13:49:56.879Z,97.00
2019-04-11T13:52:45.074Z,96.70
2019-04-11T13:55:31.853Z,96.20
2019-04-11T13:58:18.538Z,96.20
2019-04-11T14:00:49.110Z,96.80
2019-04-11T14:03:49.419Z,97.10
2019-04-11T14:06:33.139Z,97.50
2019-04-11T14:09:24.059Z,97.60
2019-04-11T14:12:15.850Z,97.00
2019-04-11T14:14:48.075Z,96.90
2019-04-11T14:17:36.183Z,97.50
2019-04-11T14:20:29.792Z,96.50
2019-04-11T14:23:14.867Z,97.10
2019-04-11T14:26:07.148Z,96.30
2019-04-11T14:28:39.822Z,96.20
2019-04-11T14:31:22.272Z,96.70
2019-04-11T14:33:55.981Z,96.90
2019-04-11T14:36:43.451Z,96.80
2019-04-11T14:39:14.551Z,97.00
2019-04-11T14:42:02.691Z,97.20
2019-04-11T14:44:32.191Z,97.90
2019-04-11T14:47:19.634Z,97.20
2019-04-11T14:49:52.390Z,97.10
2019-04-11T14:52:46.518Z,97.80
2019-04-11T14:55:14.518Z,97.00
2019-04-11T14:57:53.845Z,97.30
2019-04-11T15:00:27.062Z,96.90
2019-04-11T15:03:24.498Z,97.00
2019-04-11T15:06:09.773Z,96.80
2019-04-11T15:08:58.947Z,98.10
2019-04-11T15:11:41.649Z,97.50
2019-04-11T15:14:20.738Z,97.50
2019-04-11T15:17:09.991Z,97.60
2019-04-11T15:19:39.410Z,97.20
2019-04-11T15:22:26.929Z,97.80
2019-04-11T15:25:00.794Z,97.80
2019-04-11T15:27:47.627Z,97.60
2019-04-11T15:30:18.055Z,97.80
2019-04-11T15:33:05.158Z,97.30
2019-04-11T15:35:34.311Z,97.50
2019-04-11T15:38:21.290Z,98.40
2019-04-11T15:40:54.139Z,98.60
2019-04-11T15:43:43.287Z,98.40
2019-04-11T15:46:17.594Z,98.60
2019-04-11T15:49:05.976Z,99.00
2019-04-11T15:51:42.614Z,98.70
2019-04-11T15:54:30.875Z,98.50
2019-04-11T15:57:12.227Z,99.50
2019-04-11T15:59:59.440Z,98.50
2019-04-11T16:02:53.344Z,99.10
2019-04-11T16:05:47.258Z,99.00
2019-04-11T16:08:41.877Z,98.90
2019-04-11T16:11:27.883Z,99.80
2019-04-11T16:14:05.320Z,99.60
2019-04-11T16:17:02.662Z,99.90
2019-04-11T16:19:47.621Z,99.90
2019-04-11T16:22:32.317Z,99.90
2019-04-11T16:25:04.086Z,99.40
2019-04-11T16:28:01.349Z,99.90
2019-04-11T16:30:31.069Z,99.90
2019-04-11T16:33:19.146Z,99.90
2019-04-11T16:36:00.950Z,99.80
2019-04-11T16:38:32.094Z,99.90
2019-04-11T16:41:18.587Z,99.90
2019-04-11T16:43:54.675Z,99.90
2019-04-11T16:46:49.926Z,99.90
2019-04-11T16:49:18.913Z,99.90
2019-04-11T16:51:47.898Z,99.90
2019-04-11T16:54:16.803Z,99.90
2019-04-11T16:56:45.749Z,99.90
2019-04-11T16:59:14.756Z,99.90
2019-04-11T17:01:43.738Z,99.90
2019-04-11T17:04:12.687Z,99.90
2019-04-11T17:07:10.610Z,99.90
2019-04-11T17:09:42.971Z,99.90
2019-04-11T17:12:11.975Z,99.90
2019-04-11T17:14:41.033Z,99.90
2019-04-11T17:17:15.251Z,99.90
2019-04-11T17:19:40.946Z,99.90
2019-04-11T17:22:10.009Z,99.90
2019-04-11T17:24:39.029Z,99.90
2019-04-11T17:27:08.036Z,99.90
2019-04-11T17:29:37.238Z,99.90
2019-04-11T17:32:06.352Z,99.90
2019-04-11T17:34:35.539Z,99.90
2019-04-11T17:37:04.542Z,99.90
2019-04-11T17:39:36.414Z,99.90
2019-04-11T17:42:04.391Z,99.90
2019-04-11T17:44:33.803Z,99.90
2019-04-11T17:47:02.842Z,99.90
2019-04-11T17:49:31.958Z,99.90
2019-04-11T17:52:04.964Z,99.90
2019-04-11T17:54:32.187Z,99.90
2019-04-11T17:57:01.147Z,99.90
2019-04-11T17:59:30.209Z,99.90
2019-04-11T18:01:59.377Z,99.90
2019-04-11T18:04:28.327Z,99.90
2019-04-11T18:06:57.326Z,99.90
2019-04-11T18:09:26.612Z,99.90
2019-04-11T18:11:56.237Z,99.90
2019-04-11T18:14:25.874Z,99.90
2019-04-11T18:16:54.798Z,99.90
2019-04-11T18:19:23.970Z,99.90
2019-04-11T18:21:53.044Z,99.90
2019-04-11T18:24:22.147Z,99.90
2019-04-11T18:26:51.950Z,99.90
2019-04-11T18:29:23.045Z,99.90
2019-04-11T18:31:52.248Z,99.40
2019-04-11T18:34:21.501Z,99.10
2019-04-11T18:36:50.485Z,99.40
2019-04-11T18:39:20.074Z,98.90
2019-04-11T18:41:49.105Z,99.50
2019-04-11T18:44:18.754Z,98.90
2019-04-11T18:46:48.003Z,99.80
2019-04-11T18:49:19.483Z,98.90
2019-04-11T18:51:48.482Z,99.20
2019-04-11T18:54:17.566Z,98.60
2019-04-11T18:56:46.568Z,99.20
2019-04-11T18:59:15.744Z,98.80
2019-04-11T19:01:44.670Z,98.80
2019-04-11T19:04:13.811Z,98.90
2019-04-11T19:06:43.597Z,98.70
2019-04-11T19:09:14.824Z,98.80
2019-04-11T19:11:46.240Z,99.00
2019-04-11T19:14:16.142Z,98.50
2019-04-11T19:16:46.744Z,98.10
2019-04-11T19:19:18.565Z,98.10
2019-04-11T19:21:50.727Z,98.10
2019-04-11T19:24:18.048Z,98.30
2019-04-11T19:26:47.206Z,98.30
2019-04-11T19:29:16.191Z,98.70
2019-04-11T19:31:45.259Z,98.70
2019-04-11T19:34:14.331Z,98.50
2019-04-11T19:36:43.549Z,98.30
2019-04-11T19:39:13.940Z,98.80
2019-04-11T19:41:47.822Z,99.10
2019-04-11T19:44:16.845Z,99.00
2019-04-11T19:46:48.474Z,99.00
2019-04-11T19:49:17.539Z,99.10
2019-04-11T19:51:46.831Z,98.10
2019-04-11T19:54:15.867Z,98.20
2019-04-11T19:56:52.090Z,97.90
2019-04-11T19:59:21.079Z,98.60
2019-04-11T20:01:50.787Z,97.70
2019-04-11T20:04:23.656Z,97.90
2019-04-11T20:06:51.555Z,98.30
2019-04-11T20:09:20.534Z,98.00
2019-04-11T20:11:49.544Z,97.50
2019-04-11T20:14:18.530Z,97.70
2019-04-11T20:16:49.044Z,98.00
2019-04-11T20:19:18.252Z,97.10
2019-04-11T20:21:47.330Z,97.40
2019-04-11T20:24:16.282Z,98.00
2019-04-11T20:26:45.347Z,97.20
2019-04-11T20:29:14.389Z,97.90
2019-04-11T20:31:43.382Z,97.70
2019-04-11T20:34:12.311Z,97.40
2019-04-11T20:36:41.868Z,97.80
2019-04-11T20:39:14.902Z,97.70
2019-04-11T20:41:41.683Z,97.50
2019-04-11T20:44:10.723Z,97.60
2019-04-11T20:46:39.797Z,97.60
2019-04-11T20:49:08.846Z,97.90
2019-04-11T20:51:37.807Z,97.60
2019-04-11T20:54:07.824Z,98.00
2019-04-11T20:56:39.857Z,97.50
2019-04-11T20:59:10.048Z,97.70
2019-04-11T21:01:38.413Z,97.80
2019-04-11T21:04:07.340Z,97.80
2019-04-11T21:06:36.415Z,97.30
2019-04-11T21:09:09.036Z,97.80
2019-04-11T21:11:38.014Z,97.50
2019-04-11T21:14:07.106Z,97.80
2019-04-11T21:16:36.027Z,97.30
2019-04-11T21:19:06.990Z,97.80
2019-04-11T21:21:36.127Z,97.50
2019-04-11T21:24:05.200Z,97.40
2019-04-11T21:26:34.181Z,97.70
2019-04-11T21:29:03.125Z,97.70
2019-04-11T21:31:32.110Z,98.10
2019-04-11T21:34:02.271Z,97.60
2019-04-11T21:36:32.280Z,97.90
2019-04-11T21:39:03.534Z,97.90
2019-04-11T21:41:36.090Z,97.80
2019-04-11T21:44:05.835Z,98.00
2019-04-11T21:46:37.307Z,98.40
2019-04-11T21:49:06.401Z,98.00
2019-04-11T21:51:34.863Z,97.90
2019-04-11T21:54:03.849Z,97.90
2019-04-11T21:56:32.863Z,98.00
2019-04-11T21:59:01.938Z,98.70
2019-04-11T22:01:31.978Z,98.50
2019-04-11T22:04:01.079Z,98.20
2019-04-11T22:06:30.535Z,98.50
2019-04-11T22:09:00.350Z,98.30
2019-04-11T22:11:29.540Z,98.70
2019-04-11T22:13:58.629Z,98.80
2019-04-11T22:16:27.691Z,98.60
2019-04-11T22:18:56.691Z,99.20
2019-04-11T22:21:25.682Z,98.60
2019-04-11T22:23:54.647Z,99.00
2019-04-11T22:26:23.556Z,99.40
2019-04-11T22:28:54.941Z,99.30
